Buoy 43528

sailwx.info

Track history (hours):
 
Tides and Currents Weather Stations Pressure Air Temp Water Temp Dewpoint Dewpoint Depression Visibility Wind Speed Wind Dir Waves Ship Positions

Drifting buoy 43528

Last reported at 2015-Mar-05 20:00 UTC. Time now 2015-Mar-06 00:08 UTC.
Position N 14°24' W 155°19'.

Water temperature 26.4 ° C

Date/timePositionNaut miles runAvg speedWind from/ knotsBaromVisibWave heightAir tempDewpointWater temp
2015-Mar-05 20:00N 14°24' W 155°19'1 0.6 26.4
2015-Mar-05 19:00N 14°25' W 155°18'0 0.0 26.4
2015-Mar-05 18:00N 14°25' W 155°18'1 0.7 26.4
2015-Mar-05 16:00N 14°26' W 155°18'0 0.4 26.4
2015-Mar-05 15:00N 14°26' W 155°18'2 0.8 26.4
2015-Mar-05 12:00N 14°28' W 155°19'4 0.9 26.4
2015-Mar-05 08:00N 14°29' W 155°16'1 1.2 26.4
2015-Mar-05 07:00N 14°29' W 155°15'0 0.0 26.4
2015-Mar-05 06:00N 14°29' W 155°15'2 1.6 26.5
2015-Mar-05 05:00N 14°30' W 155°14'0 0.1 26.6
2015-Mar-05 04:00N 14°30' W 155°14'1 1.3 26.6
2015-Mar-05 03:00N 14°31' W 155°13'2 1.5 26.7
2015-Mar-05 02:00N 14°31' W 155°11'1 0.3 26.7
2015-Mar-05 00:00N 14°32' W 155°11'1 0.9 26.7
2015-Mar-04 23:00N 14°32' W 155°10'0 0.0 26.7
2015-Mar-04 21:00N 14°32' W 155°10'1 1.0 26.5
2015-Mar-04 20:00N 14°31' W 155°09'1 0.7 26.4
2015-Mar-04 19:00N 14°32' W 155°09'0 0.0 26.4
2015-Mar-04 18:00N 14°32' W 155°09'0 0.0 26.4
2015-Mar-04 17:00N 14°32' W 155°09'1 0.8 26.4
2015-Mar-04 16:00N 14°32' W 155°08'1 0.9 26.4
2015-Mar-04 15:00N 14°32' W 155°07'0 0.1 26.4
2015-Mar-04 14:00N 14°32' W 155°07'1 0.3 26.4
2015-Mar-04 12:00N 14°33' W 155°07'2 0.5 26.4
2015-Mar-04 08:00N 14°35' W 155°08'0 0.2 26.5
2015-Mar-04 06:00N 14°34' W 155°07'1 0.3 26.5
2015-Mar-04 04:00N 14°35' W 155°07'0 0.3 26.5
2015-Mar-04 03:00N 14°35' W 155°07'2 0.5 26.5
2015-Mar-04 00:00N 14°35' W 155°09'0 0.0 26.5
2015-Mar-03 21:00N 14°35' W 155°09'0 0.1 26.5
2015-Mar-03 20:00N 14°35' W 155°09'0 0.3 26.4
2015-Mar-03 19:00N 14°34' W 155°09'1 0.7 26.4
2015-Mar-03 18:00N 14°34' W 155°08'0 0.2 26.4
2015-Mar-03 16:00N 14°33' W 155°08'1 0.6 26.4
2015-Mar-03 15:00N 14°33' W 155°08'1 0.7 26.4
2015-Mar-03 14:00N 14°32' W 155°08'1 0.7 26.5
2015-Mar-03 13:00N 14°32' W 155°07'0 0.0 26.5
2015-Mar-03 12:00N 14°32' W 155°07'4 3.5 26.5
2015-Mar-03 11:00N 14°29' W 155°05'1 0.5 26.5
2015-Mar-03 08:00N 14°30' W 155°04'2 2.2 26.5
2015-Mar-03 07:00N 14°29' W 155°02'0 0.0 26.5
2015-Mar-03 06:00N 14°29' W 155°02'0 0.0 26.5
2015-Mar-03 05:00N 14°29' W 155°02'3 1.4 26.5
2015-Mar-03 03:00N 14°29' W 154°59'1 0.3 26.5
2015-Mar-03 01:00N 14°29' W 154°58'4 4.3 26.5
2015-Mar-03 00:00N 14°33' W 154°56'3 2.7 26.5
2015-Mar-02 23:00N 14°30' W 154°57'3 1.2 26.5
2015-Mar-02 20:00N 14°34' W 154°56'1 1.0 26.4
2015-Mar-02 19:00N 14°34' W 154°56'1 0.4 26.4
2015-Mar-02 16:00N 14°36' W 154°56'1 0.6 26.4
2015-Mar-02 15:00N 14°36' W 154°55'1 0.7 26.4
2015-Mar-02 14:00N 14°36' W 154°56'0 0.1 26.4
2015-Mar-02 13:00N 14°36' W 154°56'0 0.5 26.4
2015-Mar-02 12:00N 14°37' W 154°56'0 0.0 26.4
2015-Mar-02 11:00N 14°37' W 154°56'0 0.1 26.4
2015-Mar-02 10:00N 14°36' W 154°56'0 0.1 26.4
2015-Mar-02 08:00N 14°37' W 154°56'0 0.3 26.4
2015-Mar-02 07:00N 14°36' W 154°56'0 0.0 26.4
2015-Mar-02 06:00N 14°36' W 154°56'1 0.4 26.5
2015-Mar-02 04:00N 14°36' W 154°56'1 0.5 26.5
2015-Mar-02 03:00N 14°35' W 154°55'3 1.0 26.5
2015-Mar-02 00:00N 14°34' W 154°53'2 1.6 26.5
2015-Mar-01 23:00N 14°35' W 154°54'2 1.1 26.5
2015-Mar-01 21:00N 14°35' W 154°52'1 0.3 26.5
2015-Mar-01 18:00N 14°35' W 154°51'1 0.5 26.4
2015-Mar-01 16:00N 14°36' W 154°50'1 1.4 26.4
2015-Mar-01 15:00N 14°36' W 154°49'0 0.0 26.5
2015-Mar-01 14:00N 14°36' W 154°49'5 0.8 26.5
2015-Mar-01 08:00N 14°40' W 154°46'0 0.3 26.6
2015-Mar-01 07:00N 14°40' W 154°45'1 0.5 26.6
2015-Mar-01 06:00N 14°41' W 154°45'0 0.1 26.7
2015-Mar-01 04:00N 14°41' W 154°45'0 0.4 26.7
2015-Mar-01 03:00N 14°40' W 154°45'2 2.0 26.8
2015-Mar-01 02:00N 14°40' W 154°43'1 0.4 26.9
2015-Mar-01 00:00N 14°40' W 154°42'0 0.1 26.8
2015-Feb-28 23:00N 14°40' W 154°42'1 0.3 26.8
2015-Feb-28 20:00N 14°39' W 154°41'0 0.2 26.5
2015-Feb-28 19:00N 14°40' W 154°41'1 0.4 26.5
2015-Feb-28 16:00N 14°39' W 154°41'0 0.0 26.4
2015-Feb-28 15:00N 14°39' W 154°41'1 1.0 26.4
2015-Feb-28 14:00N 14°39' W 154°40'0 0.1 26.4
2015-Feb-28 11:00N 14°39' W 154°40'1 0.3 26.4
2015-Feb-28 08:00N 14°39' W 154°39'1 0.8 26.4
2015-Feb-28 07:00N 14°39' W 154°38'0 0.2 26.4
2015-Feb-28 06:00N 14°39' W 154°38'0 0.2 26.4
2015-Feb-28 04:00N 14°39' W 154°38'1 0.6 26.5
2015-Feb-28 02:00N 14°38' W 154°37'2 0.7 26.8
2015-Feb-27 23:00N 14°39' W 154°35'1 0.3 26.7
2015-Feb-27 21:00N 14°39' W 154°34'1 1.0 26.6
2015-Feb-27 20:00N 14°38' W 154°34'3 0.8 26.5
2015-Feb-27 16:00N 14°38' W 154°30'1 0.3 26.5
2015-Feb-27 14:00N 14°38' W 154°30'0 0.0 26.5
2015-Feb-27 13:00N 14°38' W 154°30'1 0.6 26.5
2015-Feb-27 12:00N 14°38' W 154°30'2 0.5 26.5
2015-Feb-27 08:00N 14°38' W 154°28'1 0.3 26.4
2015-Feb-27 06:00N 14°38' W 154°28'0 0.0 26.5
2015-Feb-27 05:00N 14°38' W 154°28'2 2.3 26.5
2015-Feb-27 04:00N 14°37' W 154°26'0 0.0 26.6
2015-Feb-27 03:00N 14°37' W 154°26'1 0.3 26.7
2015-Feb-27 01:00N 14°37' W 154°26'1 1.1 26.7
2015-Feb-27 00:00N 14°36' W 154°25'1 1.3 26.7
2015-Feb-26 23:00N 14°35' W 154°24'0 0.1 26.7
2015-Feb-26 20:00N 14°35' W 154°24'1 0.9 26.5
2015-Feb-26 19:00N 14°34' W 154°24'1 1.1 26.5
2015-Feb-26 18:00N 14°33' W 154°23'0 0.0 26.5
2015-Feb-26 17:00N 14°33' W 154°23'1 0.4 26.5
2015-Feb-26 15:00N 14°33' W 154°22'0 0.0 26.5
2015-Feb-26 14:00N 14°33' W 154°22'2 1.1 26.5
2015-Feb-26 12:00N 14°32' W 154°20'1 1.1 26.5
2015-Feb-26 11:00N 14°32' W 154°21'1 0.4 26.5
2015-Feb-26 08:00N 14°32' W 154°20'1 0.3 26.6
2015-Feb-26 04:00N 14°31' W 154°19'0 0.0 26.6
2015-Feb-26 03:00N 14°31' W 154°19'1 1.0 26.7
2015-Feb-26 02:00N 14°31' W 154°17'0 0.0 26.7
2015-Feb-26 01:00N 14°31' W 154°17'1 0.9 26.7
2015-Feb-26 00:00N 14°31' W 154°17'0 0.4 26.7
2015-Feb-25 23:00N 14°31' W 154°16'0 0.0 26.7
2015-Feb-25 21:00N 14°31' W 154°16'1 0.6 26.6
2015-Feb-25 20:00N 14°30' W 154°16'3 2.5 26.6
2015-Feb-25 19:00N 14°28' W 154°14'2 2.0 26.6
2015-Feb-25 18:00N 14°30' W 154°16'2 1.0 26.6
2015-Feb-25 16:00N 14°28' W 154°14'0 0.3 26.6
2015-Feb-25 15:00N 14°28' W 154°14'2 0.7 26.6
2015-Feb-25 12:00N 14°26' W 154°13'0 0.0 26.7
2015-Feb-25 11:00N 14°26' W 154°13'3 0.7 26.7
2015-Feb-25 07:00N 14°24' W 154°11'0 0.1 26.7
2015-Feb-25 06:00N 14°24' W 154°11'2 1.6 26.8
2015-Feb-25 05:00N 14°24' W 154°09'1 0.5 26.8
2015-Feb-25 03:00N 14°24' W 154°08'0 0.0 26.8
2015-Feb-25 02:00N 14°24' W 154°08'0 0.0 26.8
2015-Feb-25 01:00N 14°24' W 154°08'2 1.2 26.9
2015-Feb-24 23:00N 14°21' W 154°07'1 0.3 26.9
2015-Feb-24 20:00N 14°21' W 154°07'1 1.3 26.8
2015-Feb-24 19:00N 14°20' W 154°06'2 2.3 26.8
2015-Feb-24 18:00N 14°18' W 154°05'1 0.3 26.8
2015-Feb-24 16:00N 14°17' W 154°05'1 1.5 26.8
2015-Feb-24 15:00N 14°17' W 154°03'1 0.6 26.9
2015-Feb-24 14:00N 14°16' W 154°04'1 0.7 26.8
2015-Feb-24 12:00N 14°15' W 154°02'3 0.9 26.9
2015-Feb-24 08:00N 14°14' W 153°59'2 1.6 26.9
2015-Feb-24 07:00N 14°13' W 153°58'0 0.0 27.0
2015-Feb-24 05:00N 14°13' W 153°58'3 1.4 27.0
2015-Feb-24 03:00N 14°11' W 153°56'0 0.0 27.0
2015-Feb-24 00:00N 14°11' W 153°56'2 1.9 27.0
2015-Feb-23 23:00N 14°10' W 153°54'1 0.4 27.0
2015-Feb-23 20:00N 14°10' W 153°53'   26.9
Track history (hours):
 
Tides and Currents Weather Stations Pressure Air Temp Water Temp Dewpoint Dewpoint Depression Visibility Wind Speed Wind Dir Waves Ship Positions

Drifting buoy 43528

Last reported at 2015-Mar-05 20:00 UTC. Time now 2015-Mar-06 00:08 UTC.
Position N 14°24' W 155°19'.

Water temperature 26.4 ° C

Date/timePositionNaut miles runAvg speedWind from/ knotsBaromVisibWave heightAir tempDewpointWater temp
2015-Mar-05 20:00N 14°24' W 155°19'1 0.6 26.4
2015-Mar-05 19:00N 14°25' W 155°18'0 0.0 26.4
2015-Mar-05 18:00N 14°25' W 155°18'1 0.7 26.4
2015-Mar-05 16:00N 14°26' W 155°18'0 0.4 26.4
2015-Mar-05 15:00N 14°26' W 155°18'2 0.8 26.4
2015-Mar-05 12:00N 14°28' W 155°19'4 0.9 26.4
2015-Mar-05 08:00N 14°29' W 155°16'1 1.2 26.4
2015-Mar-05 07:00N 14°29' W 155°15'0 0.0 26.4
2015-Mar-05 06:00N 14°29' W 155°15'2 1.6 26.5
2015-Mar-05 05:00N 14°30' W 155°14'0 0.1 26.6
2015-Mar-05 04:00N 14°30' W 155°14'1 1.3 26.6
2015-Mar-05 03:00N 14°31' W 155°13'2 1.5 26.7
2015-Mar-05 02:00N 14°31' W 155°11'1 0.3 26.7
2015-Mar-05 00:00N 14°32' W 155°11'1 0.9 26.7
2015-Mar-04 23:00N 14°32' W 155°10'0 0.0 26.7
2015-Mar-04 21:00N 14°32' W 155°10'1 1.0 26.5
2015-Mar-04 20:00N 14°31' W 155°09'1 0.7 26.4
2015-Mar-04 19:00N 14°32' W 155°09'0 0.0 26.4
2015-Mar-04 18:00N 14°32' W 155°09'0 0.0 26.4
2015-Mar-04 17:00N 14°32' W 155°09'1 0.8 26.4
2015-Mar-04 16:00N 14°32' W 155°08'1 0.9 26.4
2015-Mar-04 15:00N 14°32' W 155°07'0 0.1 26.4
2015-Mar-04 14:00N 14°32' W 155°07'1 0.3 26.4
2015-Mar-04 12:00N 14°33' W 155°07'2 0.5 26.4
2015-Mar-04 08:00N 14°35' W 155°08'0 0.2 26.5
2015-Mar-04 06:00N 14°34' W 155°07'1 0.3 26.5
2015-Mar-04 04:00N 14°35' W 155°07'0 0.3 26.5
2015-Mar-04 03:00N 14°35' W 155°07'2 0.5 26.5
2015-Mar-04 00:00N 14°35' W 155°09'0 0.0 26.5
2015-Mar-03 21:00N 14°35' W 155°09'0 0.1 26.5
2015-Mar-03 20:00N 14°35' W 155°09'0 0.3 26.4
2015-Mar-03 19:00N 14°34' W 155°09'1 0.7 26.4
2015-Mar-03 18:00N 14°34' W 155°08'0 0.2 26.4
2015-Mar-03 16:00N 14°33' W 155°08'1 0.6 26.4
2015-Mar-03 15:00N 14°33' W 155°08'1 0.7 26.4
2015-Mar-03 14:00N 14°32' W 155°08'1 0.7 26.5
2015-Mar-03 13:00N 14°32' W 155°07'0 0.0 26.5
2015-Mar-03 12:00N 14°32' W 155°07'4 3.5 26.5
2015-Mar-03 11:00N 14°29' W 155°05'1 0.5 26.5
2015-Mar-03 08:00N 14°30' W 155°04'2 2.2 26.5
2015-Mar-03 07:00N 14°29' W 155°02'0 0.0 26.5
2015-Mar-03 06:00N 14°29' W 155°02'0 0.0 26.5
2015-Mar-03 05:00N 14°29' W 155°02'3 1.4 26.5
2015-Mar-03 03:00N 14°29' W 154°59'1 0.3 26.5
2015-Mar-03 01:00N 14°29' W 154°58'4 4.3 26.5
2015-Mar-03 00:00N 14°33' W 154°56'3 2.7 26.5
2015-Mar-02 23:00N 14°30' W 154°57'3 1.2 26.5
2015-Mar-02 20:00N 14°34' W 154°56'1 1.0 26.4
2015-Mar-02 19:00N 14°34' W 154°56'1 0.4 26.4
2015-Mar-02 16:00N 14°36' W 154°56'1 0.6 26.4
2015-Mar-02 15:00N 14°36' W 154°55'1 0.7 26.4
2015-Mar-02 14:00N 14°36' W 154°56'0 0.1 26.4
2015-Mar-02 13:00N 14°36' W 154°56'0 0.5 26.4
2015-Mar-02 12:00N 14°37' W 154°56'0 0.0 26.4
2015-Mar-02 11:00N 14°37' W 154°56'0 0.1 26.4
2015-Mar-02 10:00N 14°36' W 154°56'0 0.1 26.4
2015-Mar-02 08:00N 14°37' W 154°56'0 0.3 26.4
2015-Mar-02 07:00N 14°36' W 154°56'0 0.0 26.4
2015-Mar-02 06:00N 14°36' W 154°56'1 0.4 26.5
2015-Mar-02 04:00N 14°36' W 154°56'1 0.5 26.5
2015-Mar-02 03:00N 14°35' W 154°55'3 1.0 26.5
2015-Mar-02 00:00N 14°34' W 154°53'2 1.6 26.5
2015-Mar-01 23:00N 14°35' W 154°54'2 1.1 26.5
2015-Mar-01 21:00N 14°35' W 154°52'1 0.3 26.5
2015-Mar-01 18:00N 14°35' W 154°51'1 0.5 26.4
2015-Mar-01 16:00N 14°36' W 154°50'1 1.4 26.4
2015-Mar-01 15:00N 14°36' W 154°49'0 0.0 26.5
2015-Mar-01 14:00N 14°36' W 154°49'5 0.8 26.5
2015-Mar-01 08:00N 14°40' W 154°46'0 0.3 26.6
2015-Mar-01 07:00N 14°40' W 154°45'1 0.5 26.6
2015-Mar-01 06:00N 14°41' W 154°45'0 0.1 26.7
2015-Mar-01 04:00N 14°41' W 154°45'0 0.4 26.7
2015-Mar-01 03:00N 14°40' W 154°45'2 2.0 26.8
2015-Mar-01 02:00N 14°40' W 154°43'1 0.4 26.9
2015-Mar-01 00:00N 14°40' W 154°42'0 0.1 26.8
2015-Feb-28 23:00N 14°40' W 154°42'1 0.3 26.8
2015-Feb-28 20:00N 14°39' W 154°41'0 0.2 26.5
2015-Feb-28 19:00N 14°40' W 154°41'1 0.4 26.5
2015-Feb-28 16:00N 14°39' W 154°41'0 0.0 26.4
2015-Feb-28 15:00N 14°39' W 154°41'1 1.0 26.4
2015-Feb-28 14:00N 14°39' W 154°40'0 0.1 26.4
2015-Feb-28 11:00N 14°39' W 154°40'1 0.3 26.4
2015-Feb-28 08:00N 14°39' W 154°39'1 0.8 26.4
2015-Feb-28 07:00N 14°39' W 154°38'0 0.2 26.4
2015-Feb-28 06:00N 14°39' W 154°38'0 0.2 26.4
2015-Feb-28 04:00N 14°39' W 154°38'1 0.6 26.5
2015-Feb-28 02:00N 14°38' W 154°37'2 0.7 26.8
2015-Feb-27 23:00N 14°39' W 154°35'1 0.3 26.7
2015-Feb-27 21:00N 14°39' W 154°34'1 1.0 26.6
2015-Feb-27 20:00N 14°38' W 154°34'3 0.8 26.5
2015-Feb-27 16:00N 14°38' W 154°30'1 0.3 26.5
2015-Feb-27 14:00N 14°38' W 154°30'0 0.0 26.5
2015-Feb-27 13:00N 14°38' W 154°30'1 0.6 26.5
2015-Feb-27 12:00N 14°38' W 154°30'2 0.5 26.5
2015-Feb-27 08:00N 14°38' W 154°28'1 0.3 26.4
2015-Feb-27 06:00N 14°38' W 154°28'0 0.0 26.5
2015-Feb-27 05:00N 14°38' W 154°28'2 2.3 26.5
2015-Feb-27 04:00N 14°37' W 154°26'0 0.0 26.6
2015-Feb-27 03:00N 14°37' W 154°26'1 0.3 26.7
2015-Feb-27 01:00N 14°37' W 154°26'1 1.1 26.7
2015-Feb-27 00:00N 14°36' W 154°25'1 1.3 26.7
2015-Feb-26 23:00N 14°35' W 154°24'0 0.1 26.7
2015-Feb-26 20:00N 14°35' W 154°24'1 0.9 26.5
2015-Feb-26 19:00N 14°34' W 154°24'1 1.1 26.5
2015-Feb-26 18:00N 14°33' W 154°23'0 0.0 26.5
2015-Feb-26 17:00N 14°33' W 154°23'1 0.4 26.5
2015-Feb-26 15:00N 14°33' W 154°22'0 0.0 26.5
2015-Feb-26 14:00N 14°33' W 154°22'2 1.1 26.5
2015-Feb-26 12:00N 14°32' W 154°20'1 1.1 26.5
2015-Feb-26 11:00N 14°32' W 154°21'1 0.4 26.5
2015-Feb-26 08:00N 14°32' W 154°20'1 0.3 26.6
2015-Feb-26 04:00N 14°31' W 154°19'0 0.0 26.6
2015-Feb-26 03:00N 14°31' W 154°19'1 1.0 26.7
2015-Feb-26 02:00N 14°31' W 154°17'0 0.0 26.7
2015-Feb-26 01:00N 14°31' W 154°17'1 0.9 26.7
2015-Feb-26 00:00N 14°31' W 154°17'0 0.4 26.7
2015-Feb-25 23:00N 14°31' W 154°16'0 0.0 26.7
2015-Feb-25 21:00N 14°31' W 154°16'1 0.6 26.6
2015-Feb-25 20:00N 14°30' W 154°16'3 2.5 26.6
2015-Feb-25 19:00N 14°28' W 154°14'2 2.0 26.6
2015-Feb-25 18:00N 14°30' W 154°16'2 1.0 26.6
2015-Feb-25 16:00N 14°28' W 154°14'0 0.3 26.6
2015-Feb-25 15:00N 14°28' W 154°14'2 0.7 26.6
2015-Feb-25 12:00N 14°26' W 154°13'0 0.0 26.7
2015-Feb-25 11:00N 14°26' W 154°13'3 0.7 26.7
2015-Feb-25 07:00N 14°24' W 154°11'0 0.1 26.7
2015-Feb-25 06:00N 14°24' W 154°11'2 1.6 26.8
2015-Feb-25 05:00N 14°24' W 154°09'1 0.5 26.8
2015-Feb-25 03:00N 14°24' W 154°08'0 0.0 26.8
2015-Feb-25 02:00N 14°24' W 154°08'0 0.0 26.8
2015-Feb-25 01:00N 14°24' W 154°08'2 1.2 26.9
2015-Feb-24 23:00N 14°21' W 154°07'1 0.3 26.9
2015-Feb-24 20:00N 14°21' W 154°07'1 1.3 26.8
2015-Feb-24 19:00N 14°20' W 154°06'2 2.3 26.8
2015-Feb-24 18:00N 14°18' W 154°05'1 0.3 26.8
2015-Feb-24 16:00N 14°17' W 154°05'1 1.5 26.8
2015-Feb-24 15:00N 14°17' W 154°03'1 0.6 26.9
2015-Feb-24 14:00N 14°16' W 154°04'1 0.7 26.8
2015-Feb-24 12:00N 14°15' W 154°02'3 0.9 26.9
2015-Feb-24 08:00N 14°14' W 153°59'2 1.6 26.9
2015-Feb-24 07:00N 14°13' W 153°58'0 0.0 27.0
2015-Feb-24 05:00N 14°13' W 153°58'3 1.4 27.0
2015-Feb-24 03:00N 14°11' W 153°56'0 0.0 27.0
2015-Feb-24 00:00N 14°11' W 153°56'2 1.9 27.0
2015-Feb-23 23:00N 14°10' W 153°54'1 0.4 27.0
2015-Feb-23 20:00N 14°10' W 153°53'   26.9

Dump ship's entire track history